createdAt,value
2019-02-22T00:00:39.123Z,102342.55
2019-02-22T00:03:09.364Z,102354.12
2019-02-22T00:05:39.432Z,102363.30
2019-02-22T00:08:09.586Z,102360.73
2019-02-22T00:10:39.711Z,102364.08
2019-02-22T00:13:09.858Z,102367.20
2019-02-22T00:15:39.972Z,102361.92
2019-02-22T00:18:10.126Z,102369.04
2019-02-22T00:20:41.309Z,102371.36
2019-02-22T00:23:11.542Z,102387.63
2019-02-22T00:25:41.566Z,102396.37
2019-02-22T00:28:11.700Z,102407.06
2019-02-22T00:30:41.762Z,102410.43
2019-02-22T00:33:11.813Z,102408.91
2019-02-22T00:35:41.863Z,102422.08
2019-02-22T00:38:11.971Z,102433.83
2019-02-22T00:40:42.016Z,102446.75
2019-02-22T00:43:12.079Z,102439.91
2019-02-22T00:45:42.124Z,102446.73
2019-02-22T00:48:12.198Z,102451.39
2019-02-22T00:50:42.255Z,102456.03
2019-02-22T00:53:12.350Z,102454.11
2019-02-22T00:55:42.406Z,102459.70
2019-02-22T00:58:12.480Z,102464.66
2019-02-22T01:00:42.509Z,102464.75
2019-02-22T01:03:12.571Z,102471.09
2019-02-22T01:05:42.597Z,102471.84
2019-02-22T01:08:12.761Z,102475.23
2019-02-22T01:10:43.873Z,102478.07
2019-02-22T01:13:13.977Z,102476.45
2019-02-22T01:15:44.029Z,102481.53
2019-02-22T01:18:14.093Z,102492.09
2019-02-22T01:20:53.922Z,102500.81
2019-02-22T01:23:16.575Z,102497.50
2019-02-22T01:25:46.884Z,102503.66
2019-02-22T01:28:16.962Z,102504.16
2019-02-22T01:30:47.391Z,102514.37
2019-02-22T01:33:17.515Z,102520.01
2019-02-22T01:35:47.660Z,102529.22
2019-02-22T01:38:17.686Z,102532.92
2019-02-22T01:40:47.761Z,102529.77
2019-02-22T01:43:17.801Z,102530.31
2019-02-22T01:45:47.907Z,102533.16
2019-02-22T01:48:18.001Z,102535.13
2019-02-22T01:50:48.066Z,102542.40
2019-02-22T01:53:18.139Z,102537.45
2019-02-22T01:55:48.186Z,102535.46
2019-02-22T01:58:18.319Z,102542.95
2019-02-22T02:00:48.452Z,102537.60
2019-02-22T02:03:18.569Z,102554.30
2019-02-22T02:05:48.618Z,102545.77
2019-02-22T02:08:19.361Z,102551.34
2019-02-22T02:10:54.209Z,102546.84
2019-02-22T02:13:21.188Z,102555.70
2019-02-22T02:15:51.225Z,102557.50
2019-02-22T02:18:21.331Z,102558.69
2019-02-22T02:20:51.688Z,102556.06
2019-02-22T02:23:21.912Z,102559.35
2019-02-22T02:25:52.061Z,102568.73
2019-02-22T02:28:22.047Z,102568.58
2019-02-22T02:30:52.095Z,102573.67
2019-02-22T02:33:22.117Z,102566.55
2019-02-22T02:35:52.146Z,102568.00
2019-02-22T02:38:22.187Z,102571.73
2019-02-22T02:40:52.250Z,102581.91
2019-02-22T02:43:22.303Z,102584.51
2019-02-22T02:45:52.390Z,102583.06
2019-02-22T02:48:22.494Z,102584.97
2019-02-22T02:50:52.523Z,102581.63
2019-02-22T02:53:22.579Z,102589.17
2019-02-22T02:55:52.611Z,102581.12
2019-02-22T02:58:22.661Z,102583.47
2019-02-22T03:00:52.761Z,102593.25
2019-02-22T03:03:22.877Z,102593.89
2019-02-22T03:05:59.971Z,102598.48
2019-02-22T03:08:33.546Z,102606.59
2019-02-22T03:11:03.591Z,102603.00
2019-02-22T03:13:33.617Z,102614.00
2019-02-22T03:16:03.635Z,102616.08
2019-02-22T03:18:33.677Z,102621.95
2019-02-22T03:21:03.698Z,102631.05
2019-02-22T03:23:33.750Z,102629.21
2019-02-22T03:26:03.788Z,102636.13
2019-02-22T03:28:33.843Z,102643.81
2019-02-22T03:31:03.887Z,102650.20
2019-02-22T03:33:33.942Z,102657.27
2019-02-22T03:36:04.027Z,102657.99
2019-02-22T03:38:34.075Z,102660.08
2019-02-22T03:41:04.185Z,102666.86
2019-02-22T03:43:34.211Z,102673.84
2019-02-22T03:46:04.342Z,102672.36
2019-02-22T03:48:34.433Z,102682.42
2019-02-22T03:51:04.548Z,102676.13
2019-02-22T03:53:57.592Z,102686.19
2019-02-22T03:56:27.735Z,102691.03
2019-02-22T03:58:57.867Z,102689.05
2019-02-22T04:01:27.863Z,102694.16
2019-02-22T04:03:57.908Z,102696.77
2019-02-22T04:06:28.151Z,102700.30
2019-02-22T04:08:58.310Z,102701.50
2019-02-22T04:11:28.348Z,102708.33
2019-02-22T04:13:58.389Z,102713.91
2019-02-22T04:16:28.442Z,102721.28
2019-02-22T04:18:58.525Z,102718.78
2019-02-22T04:21:28.556Z,102729.48
2019-02-22T04:23:58.544Z,102729.67
2019-02-22T04:26:28.590Z,102734.14
2019-02-22T04:28:58.628Z,102734.11
2019-02-22T04:31:28.664Z,102743.25
2019-02-22T04:33:58.680Z,102738.02
2019-02-22T04:36:28.818Z,102743.80
2019-02-22T04:38:58.934Z,102745.64
2019-02-22T04:41:28.979Z,102749.94
2019-02-22T04:43:59.011Z,102758.56
2019-02-22T04:46:29.080Z,102769.91
2019-02-22T04:48:59.076Z,102772.84
2019-02-22T04:51:29.175Z,102766.78
2019-02-22T04:53:59.542Z,102775.36
2019-02-22T04:56:29.560Z,102782.70
2019-02-22T04:58:59.608Z,102791.00
2019-02-22T05:01:29.675Z,102796.42
2019-02-22T05:03:59.774Z,102799.85
2019-02-22T05:06:29.842Z,102801.00
2019-02-22T05:08:59.866Z,102811.72
2019-02-22T05:11:29.924Z,102817.88
2019-02-22T05:13:59.970Z,102824.11
2019-02-22T05:16:29.981Z,102826.42
2019-02-22T05:19:00.024Z,102827.05
2019-02-22T05:21:30.031Z,102829.94
2019-02-22T05:24:00.078Z,102829.21
2019-02-22T05:26:30.090Z,102835.40
2019-02-22T05:29:00.162Z,102831.21
2019-02-22T05:31:30.162Z,102848.23
2019-02-22T05:34:00.195Z,102850.83
2019-02-22T05:36:30.206Z,102857.20
2019-02-22T05:39:00.288Z,102857.91
2019-02-22T05:41:30.294Z,102865.89
2019-02-22T05:44:00.316Z,102875.81
2019-02-22T05:46:30.319Z,102873.75
2019-02-22T05:49:00.354Z,102882.55
2019-02-22T05:51:30.399Z,102894.34
2019-02-22T05:54:00.438Z,102887.16
2019-02-22T05:56:30.436Z,102901.26
2019-02-22T05:59:00.532Z,102905.32
2019-02-22T06:01:30.537Z,102905.84
2019-02-22T06:04:00.625Z,102918.70
2019-02-22T06:06:30.625Z,102929.41
2019-02-22T06:09:00.765Z,102925.59
2019-02-22T06:11:30.801Z,102936.11
2019-02-22T06:14:01.881Z,102939.11
2019-02-22T06:16:31.894Z,102941.45
2019-02-22T06:19:02.323Z,102938.63
2019-02-22T06:21:32.388Z,102947.98
2019-02-22T06:24:03.007Z,102945.48
2019-02-22T06:26:33.279Z,102960.39
2019-02-22T06:29:03.289Z,102961.06
2019-02-22T06:31:33.337Z,102966.56
2019-02-22T06:34:03.365Z,102971.59
2019-02-22T06:36:33.411Z,102970.25
2019-02-22T06:39:05.221Z,102972.25
2019-02-22T06:41:35.264Z,102975.44
2019-02-22T06:44:05.296Z,102981.95
2019-02-22T06:46:35.329Z,102988.14
2019-02-22T06:49:05.321Z,102996.66
2019-02-22T06:51:35.379Z,102997.52
2019-02-22T06:54:05.468Z,103004.38
2019-02-22T06:56:38.471Z,103006.00
2019-02-22T06:59:08.517Z,103014.67
2019-02-22T07:01:38.587Z,103024.50
2019-02-22T07:04:08.613Z,103026.04
2019-02-22T07:06:38.609Z,103032.55
2019-02-22T07:09:08.668Z,103047.66
2019-02-22T07:11:55.111Z,103054.02
2019-02-22T07:14:25.187Z,103066.65
2019-02-22T07:16:55.234Z,103073.84
2019-02-22T07:19:25.272Z,103084.79
2019-02-22T07:21:55.385Z,103089.22
2019-02-22T07:24:25.450Z,103102.73
2019-02-22T07:26:55.527Z,103106.41
2019-02-22T07:29:25.568Z,103110.91
2019-02-22T07:32:05.303Z,103124.80
2019-02-22T07:34:27.301Z,103128.50
2019-02-22T07:36:57.335Z,103137.03
2019-02-22T07:39:28.328Z,103146.98
2019-02-22T07:41:58.402Z,103149.54
2019-02-22T07:44:28.457Z,103153.29
2019-02-22T07:46:58.468Z,103163.11
2019-02-22T07:49:28.683Z,103174.31
2019-02-22T07:51:58.688Z,103176.55
2019-02-22T07:54:28.725Z,103176.70
2019-02-22T07:56:58.775Z,103180.41
2019-02-22T07:59:28.875Z,103188.19
2019-02-22T08:01:58.888Z,103200.91
2019-02-22T08:04:30.631Z,103207.30
2019-02-22T08:07:00.724Z,103217.27
2019-02-22T08:09:30.765Z,103225.19
2019-02-22T08:12:00.815Z,103229.16
2019-02-22T08:14:30.883Z,103238.11
2019-02-22T08:17:00.889Z,103249.11
2019-02-22T08:19:31.034Z,103262.81
2019-02-22T08:22:03.576Z,103261.34
2019-02-22T08:24:33.770Z,103263.52
2019-02-22T08:27:03.882Z,103277.89
2019-02-22T08:29:34.012Z,103276.50
2019-02-22T08:32:04.015Z,103281.52
2019-02-22T08:34:34.081Z,103284.78
2019-02-22T08:37:11.596Z,103288.36
2019-02-22T08:39:58.952Z,103297.31
2019-02-22T08:42:43.700Z,103291.80
2019-02-22T08:45:26.688Z,103301.85
2019-02-22T08:47:57.530Z,103304.78
2019-02-22T08:50:27.645Z,103309.69
2019-02-22T08:52:57.737Z,103322.18
2019-02-22T08:55:27.810Z,103324.93
2019-02-22T08:57:57.862Z,103327.78
2019-02-22T09:00:28.002Z,103329.26
2019-02-22T09:02:58.069Z,103340.33
2019-02-22T09:05:28.078Z,103346.15
2019-02-22T09:07:58.209Z,103358.23
2019-02-22T09:10:28.205Z,103370.42
2019-02-22T09:12:58.225Z,103375.89
2019-02-22T09:15:28.237Z,103385.44
2019-02-22T09:17:58.337Z,103384.51
2019-02-22T09:20:28.398Z,103396.34
2019-02-22T09:22:58.510Z,103402.39
2019-02-22T09:25:28.528Z,103407.73
2019-02-22T09:27:58.640Z,103407.55
2019-02-22T09:30:28.654Z,103407.41
2019-02-22T09:32:58.699Z,103416.64
2019-02-22T09:35:28.686Z,103420.98
2019-02-22T09:37:58.816Z,103415.90
2019-02-22T09:40:28.969Z,103430.63
2019-02-22T09:42:58.966Z,103425.73
2019-02-22T09:45:28.994Z,103423.30
2019-02-22T09:47:59.060Z,103427.47
2019-02-22T09:50:29.066Z,103429.30
2019-02-22T09:52:59.062Z,103428.82
2019-02-22T09:55:29.203Z,103435.88
2019-02-22T09:57:59.304Z,103430.68
2019-02-22T10:00:29.304Z,103435.25
2019-02-22T10:02:59.340Z,103439.52
2019-02-22T10:05:29.344Z,103444.98
2019-02-22T10:07:59.394Z,103445.30
2019-02-22T10:10:29.439Z,103449.41
2019-02-22T10:12:59.510Z,103440.53
2019-02-22T10:15:29.540Z,103454.55
2019-02-22T10:17:59.614Z,103459.05
2019-02-22T10:20:29.639Z,103468.53
2019-02-22T10:22:59.842Z,103468.96
2019-02-22T10:25:29.916Z,103468.27
2019-02-22T10:28:00.155Z,103469.77
2019-02-22T10:30:30.277Z,103475.52
2019-02-22T10:33:00.446Z,103473.69
2019-02-22T10:35:32.064Z,103477.11
2019-02-22T10:38:02.077Z,103471.94
2019-02-22T10:40:32.226Z,103469.92
2019-02-22T10:43:02.324Z,103470.70
2019-02-22T10:45:32.366Z,103469.99
2019-02-22T10:48:02.454Z,103470.98
2019-02-22T10:50:32.526Z,103472.05
2019-02-22T10:53:02.686Z,103484.58
2019-02-22T10:55:32.802Z,103479.43
2019-02-22T10:58:03.042Z,103481.25
2019-02-22T11:00:33.216Z,103482.02
2019-02-22T11:03:03.303Z,103494.83
2019-02-22T11:05:33.384Z,103477.22
2019-02-22T11:08:03.403Z,103483.16
2019-02-22T11:10:33.472Z,103477.24
2019-02-22T11:13:03.554Z,103479.05
2019-02-22T11:15:33.652Z,103481.14
2019-02-22T11:18:03.764Z,103475.02
2019-02-22T11:20:33.837Z,103478.41
2019-02-22T11:23:03.866Z,103476.14
2019-02-22T11:25:34.475Z,103474.98
2019-02-22T11:28:05.861Z,103491.14
2019-02-22T11:30:36.470Z,103483.27
2019-02-22T11:33:07.325Z,103481.97
2019-02-22T11:35:37.903Z,103476.80
2019-02-22T11:38:08.398Z,103485.69
2019-02-22T11:40:38.711Z,103486.28
2019-02-22T11:43:09.190Z,103485.55
2019-02-22T11:45:40.606Z,103479.02
2019-02-22T11:48:11.206Z,103492.58
2019-02-22T11:50:41.921Z,103501.54
2019-02-22T11:53:12.566Z,103508.18
2019-02-22T11:55:43.367Z,103511.26
2019-02-22T11:58:16.847Z,103503.11
2019-02-22T12:00:48.059Z,103515.02
2019-02-22T12:03:24.719Z,103513.62
2019-02-22T12:05:50.438Z,103511.35
2019-02-22T12:08:20.713Z,103516.16
2019-02-22T12:10:51.021Z,103524.25
2019-02-22T12:13:21.313Z,103526.03
2019-02-22T12:15:52.007Z,103517.87
2019-02-22T12:18:22.211Z,103532.59
2019-02-22T12:20:52.231Z,103524.50
2019-02-22T12:23:22.381Z,103523.03
2019-02-22T12:25:52.471Z,103523.05
2019-02-22T12:28:22.717Z,103517.56
2019-02-22T12:30:52.795Z,103515.95
2019-02-22T12:33:22.899Z,103517.63
2019-02-22T12:35:52.955Z,103518.44
2019-02-22T12:38:23.171Z,103521.97
2019-02-22T12:40:53.568Z,103528.08
2019-02-22T12:43:23.724Z,103536.03
2019-02-22T12:45:53.953Z,103540.25
2019-02-22T12:48:24.223Z,103547.53
2019-02-22T12:50:54.198Z,103551.10
2019-02-22T12:53:24.343Z,103563.39
2019-02-22T12:55:54.482Z,103557.97
2019-02-22T12:58:24.763Z,103557.65
2019-02-22T13:00:54.855Z,103551.48
2019-02-22T13:03:25.027Z,103547.61
2019-02-22T13:05:55.301Z,103566.86
2019-02-22T13:08:25.319Z,103568.73
2019-02-22T13:10:55.451Z,103566.92
2019-02-22T13:13:25.475Z,103567.58
2019-02-22T13:15:55.514Z,103574.80
2019-02-22T13:18:25.569Z,103569.40
2019-02-22T13:20:55.633Z,103571.19
2019-02-22T13:23:26.933Z,103580.47
2019-02-22T13:25:58.044Z,103586.63
2019-02-22T13:28:28.155Z,103591.43
2019-02-22T13:30:58.285Z,103594.91
2019-02-22T13:33:28.293Z,103589.70
2019-02-22T13:35:58.328Z,103594.20
2019-02-22T13:38:28.368Z,103599.34
2019-02-22T13:40:58.423Z,103606.75
2019-02-22T13:43:28.509Z,103608.27
2019-02-22T13:45:58.551Z,103610.84
2019-02-22T13:48:28.776Z,103619.99
2019-02-22T13:50:58.937Z,103610.17
2019-02-22T13:53:28.961Z,103617.69
2019-02-22T13:55:59.006Z,103608.03
2019-02-22T13:58:32.278Z,103600.84
2019-02-22T14:01:02.341Z,103596.53
2019-02-22T14:03:32.379Z,103597.13
2019-02-22T14:06:02.921Z,103587.12
2019-02-22T14:08:36.444Z,103585.16
2019-02-22T14:11:06.518Z,103579.95
2019-02-22T14:13:36.553Z,103587.89
2019-02-22T14:16:06.568Z,103589.12
2019-02-22T14:18:36.753Z,103591.38
2019-02-22T14:21:06.821Z,103597.80
2019-02-22T14:23:36.849Z,103605.09
2019-02-22T14:26:06.930Z,103610.95
2019-02-22T14:28:37.175Z,103601.26
2019-02-22T14:31:07.398Z,103595.27
2019-02-22T14:33:37.533Z,103600.78
2019-02-22T14:36:07.629Z,103611.55
2019-02-22T14:38:37.714Z,103629.38
2019-02-22T14:41:07.764Z,103633.25
2019-02-22T14:43:37.879Z,103626.13
2019-02-22T14:46:07.930Z,103625.37
2019-02-22T14:48:37.986Z,103633.16
2019-02-22T14:51:08.009Z,103630.92
2019-02-22T14:53:38.064Z,103623.70
2019-02-22T14:56:08.095Z,103621.97
2019-02-22T14:58:38.200Z,103619.93
2019-02-22T15:01:08.246Z,103610.78
2019-02-22T15:03:38.384Z,103616.91
2019-02-22T15:06:08.422Z,103620.36
2019-02-22T15:08:38.478Z,103625.77
2019-02-22T15:11:08.504Z,103627.92
2019-02-22T15:13:38.969Z,103634.70
2019-02-22T15:16:21.424Z,103640.65
2019-02-22T15:18:51.506Z,103644.58
2019-02-22T15:21:21.590Z,103645.12
2019-02-22T15:23:54.166Z,103640.36
2019-02-22T15:26:24.212Z,103646.05
2019-02-22T15:28:54.320Z,103648.78
2019-02-22T15:31:25.705Z,103647.77
2019-02-22T15:33:57.302Z,103655.86
2019-02-22T15:36:27.600Z,103655.24
2019-02-22T15:38:57.688Z,103657.08
2019-02-22T15:41:27.712Z,103661.89
2019-02-22T15:43:57.798Z,103662.22
2019-02-22T15:46:27.845Z,103657.53
2019-02-22T15:48:57.972Z,103662.30
2019-02-22T15:51:27.994Z,103661.02
2019-02-22T15:53:58.035Z,103651.41
2019-02-22T15:56:28.104Z,103654.88
2019-02-22T15:58:58.126Z,103658.88
2019-02-22T16:01:28.147Z,103670.83
2019-02-22T16:04:06.453Z,103671.58
2019-02-22T16:06:36.486Z,103663.36
2019-02-22T16:09:08.269Z,103671.44
2019-02-22T16:11:38.284Z,103675.79
2019-02-22T16:14:08.432Z,103668.56
2019-02-22T16:16:38.521Z,103671.98
2019-02-22T16:19:08.550Z,103675.86
2019-02-22T16:21:38.622Z,103674.33
2019-02-22T16:24:08.714Z,103672.99
2019-02-22T16:26:38.839Z,103678.92
2019-02-22T16:29:08.947Z,103685.22
2019-02-22T16:31:39.089Z,103678.92
2019-02-22T16:34:09.207Z,103680.95
2019-02-22T16:36:39.279Z,103687.84
2019-02-22T16:39:09.378Z,103693.80
2019-02-22T16:41:39.734Z,103690.22
2019-02-22T16:44:09.729Z,103695.29
2019-02-22T16:46:39.774Z,103699.55
2019-02-22T16:49:09.813Z,103704.77
2019-02-22T16:51:39.939Z,103711.88
2019-02-22T16:54:09.970Z,103709.12
2019-02-22T16:56:40.067Z,103720.30
2019-02-22T16:59:10.272Z,103721.30
2019-02-22T17:01:40.325Z,103713.00
2019-02-22T17:04:10.414Z,103712.19
2019-02-22T17:06:40.526Z,103724.36
2019-02-22T17:09:10.648Z,103731.03
2019-02-22T17:11:40.760Z,103737.97
2019-02-22T17:14:10.831Z,103740.52
2019-02-22T17:16:45.726Z,103744.73
2019-02-22T17:19:12.572Z,103742.27
2019-02-22T17:21:42.696Z,103749.24
2019-02-22T17:24:12.752Z,103750.50
2019-02-22T17:26:42.797Z,103741.10
2019-02-22T17:29:12.890Z,103752.61
2019-02-22T17:31:42.920Z,103752.27
2019-02-22T17:34:13.153Z,103737.58
2019-02-22T17:36:43.191Z,103742.67
2019-02-22T17:39:15.981Z,103739.67
2019-02-22T17:41:46.025Z,103736.50
2019-02-22T17:44:16.181Z,103741.16
2019-02-22T17:46:56.927Z,103747.02
2019-02-22T17:49:17.971Z,103753.51
2019-02-22T17:51:48.079Z,103752.82
2019-02-22T17:54:18.190Z,103747.79
2019-02-22T17:56:48.223Z,103744.77
2019-02-22T17:59:18.336Z,103753.84
2019-02-22T18:01:48.407Z,103745.77
2019-02-22T18:04:18.475Z,103750.17
2019-02-22T18:06:48.770Z,103758.61
2019-02-22T18:09:18.902Z,103761.38
2019-02-22T18:11:48.977Z,103766.83
2019-02-22T18:14:19.077Z,103771.38
2019-02-22T18:16:49.151Z,103764.30
2019-02-22T18:19:19.201Z,103767.48
2019-02-22T18:21:49.379Z,103781.40
2019-02-22T18:24:19.501Z,103786.41
2019-02-22T18:26:49.672Z,103786.09
2019-02-22T18:29:19.691Z,103791.87
2019-02-22T18:31:49.758Z,103804.63
2019-02-22T18:34:19.783Z,103797.17
2019-02-22T18:36:49.905Z,103796.73
2019-02-22T18:39:19.922Z,103804.29
2019-02-22T18:41:49.982Z,103805.50
2019-02-22T18:44:20.001Z,103806.19
2019-02-22T18:46:50.054Z,103797.20
2019-02-22T18:49:20.050Z,103803.11
2019-02-22T18:51:50.121Z,103801.10
2019-02-22T18:54:22.929Z,103797.31
2019-02-22T18:56:52.971Z,103797.62
2019-02-22T18:59:23.101Z,103803.62
2019-02-22T19:01:53.149Z,103801.66
2019-02-22T19:04:23.258Z,103807.27
2019-02-22T19:06:53.333Z,103805.86
2019-02-22T19:09:23.439Z,103806.53
2019-02-22T19:11:53.638Z,103815.95
2019-02-22T19:14:23.748Z,103817.40
2019-02-22T19:16:53.888Z,103812.55
2019-02-22T19:19:23.899Z,103803.47
2019-02-22T19:21:53.972Z,103802.39
2019-02-22T19:24:24.031Z,103803.89
2019-02-22T19:26:54.089Z,103803.88
2019-02-22T19:29:24.621Z,103801.00
2019-02-22T19:31:54.635Z,103785.44
2019-02-22T19:34:24.749Z,103786.22
2019-02-22T19:36:54.798Z,103788.08
2019-02-22T19:39:24.955Z,103781.77
2019-02-22T19:41:54.965Z,103777.44
2019-02-22T19:44:25.045Z,103779.48
2019-02-22T19:46:55.805Z,103782.40
2019-02-22T19:49:25.892Z,103787.25
2019-02-22T19:51:56.032Z,103781.05
2019-02-22T19:54:26.091Z,103765.03
2019-02-22T19:56:56.210Z,103773.23
2019-02-22T19:59:26.292Z,103788.94
2019-02-22T20:01:56.406Z,103797.09
2019-02-22T20:04:26.537Z,103798.53
2019-02-22T20:06:56.621Z,103798.53
2019-02-22T20:09:26.751Z,103798.86
2019-02-22T20:11:57.069Z,103801.98
2019-02-22T20:14:27.105Z,103803.63
2019-02-22T20:16:57.199Z,103811.41
2019-02-22T20:19:27.301Z,103808.00
2019-02-22T20:21:57.402Z,103807.94
2019-02-22T20:24:27.563Z,103819.05
2019-02-22T20:26:57.649Z,103831.38
2019-02-22T20:29:27.864Z,103824.27
2019-02-22T20:31:58.009Z,103817.83
2019-02-22T20:34:28.175Z,103818.42
2019-02-22T20:36:58.295Z,103823.39
2019-02-22T20:39:28.518Z,103827.40
2019-02-22T20:41:58.668Z,103827.92
2019-02-22T20:44:28.754Z,103843.56
2019-02-22T20:46:58.872Z,103852.13
2019-02-22T20:49:28.989Z,103857.39
2019-02-22T20:51:59.184Z,103857.00
2019-02-22T20:54:29.265Z,103850.73
2019-02-22T20:56:59.379Z,103845.99
2019-02-22T20:59:29.438Z,103842.82
2019-02-22T21:01:59.615Z,103854.53
2019-02-22T21:04:29.761Z,103854.66
2019-02-22T21:06:59.917Z,103846.43
2019-02-22T21:09:30.059Z,103851.05
2019-02-22T21:12:00.371Z,103862.84
2019-02-22T21:14:30.531Z,103866.87
2019-02-22T21:17:00.657Z,103859.23
2019-02-22T21:19:30.828Z,103857.44
2019-02-22T21:22:02.813Z,103848.00
2019-02-22T21:24:32.854Z,103842.94
2019-02-22T21:27:02.945Z,103845.25
2019-02-22T21:29:33.038Z,103842.73
2019-02-22T21:32:03.652Z,103852.06
2019-02-22T21:34:33.818Z,103861.50
2019-02-22T21:37:04.382Z,103871.17
2019-02-22T21:39:35.176Z,103869.71
2019-02-22T21:42:19.688Z,103859.45
2019-02-22T21:44:41.556Z,103868.16
2019-02-22T21:47:13.089Z,103872.16
2019-02-22T21:49:43.311Z,103872.97
2019-02-22T21:52:13.607Z,103878.14
2019-02-22T21:54:44.200Z,103892.55
2019-02-22T21:57:14.320Z,103884.72
2019-02-22T21:59:44.526Z,103874.91
2019-02-22T22:02:14.598Z,103886.41
2019-02-22T22:04:44.756Z,103880.62
2019-02-22T22:07:14.785Z,103889.19
2019-02-22T22:09:44.879Z,103888.22
2019-02-22T22:12:14.899Z,103893.89
2019-02-22T22:14:45.005Z,103897.17
2019-02-22T22:17:15.087Z,103906.46
2019-02-22T22:19:45.114Z,103914.78
2019-02-22T22:22:15.181Z,103908.77
2019-02-22T22:24:45.248Z,103914.37
2019-02-22T22:27:15.248Z,103917.96
2019-02-22T22:29:45.311Z,103924.34
2019-02-22T22:32:15.387Z,103921.27
2019-02-22T22:34:45.424Z,103924.76
2019-02-22T22:37:15.435Z,103926.22
2019-02-22T22:39:45.599Z,103928.17
2019-02-22T22:42:15.965Z,103933.56
2019-02-22T22:44:46.095Z,103941.54
2019-02-22T22:47:16.115Z,103946.60
2019-02-22T22:49:46.267Z,103947.47
2019-02-22T22:52:16.285Z,103953.22
2019-02-22T22:54:46.395Z,103960.75
2019-02-22T22:57:16.477Z,103952.03
2019-02-22T22:59:46.543Z,103953.22
2019-02-22T23:02:16.562Z,103956.09
2019-02-22T23:04:46.598Z,103951.89
2019-02-22T23:07:16.658Z,103954.97
2019-02-22T23:09:47.042Z,103955.88
2019-02-22T23:12:17.035Z,103970.26
2019-02-22T23:14:47.064Z,103980.86
2019-02-22T23:17:17.162Z,103987.48
2019-02-22T23:19:47.183Z,103984.79
2019-02-22T23:22:17.291Z,103994.38
2019-02-22T23:24:47.380Z,103995.85
2019-02-22T23:27:17.498Z,103996.02
2019-02-22T23:29:47.511Z,103994.08
2019-02-22T23:32:17.621Z,103984.53
2019-02-22T23:34:47.996Z,103982.92
2019-02-22T23:37:18.422Z,103976.52
2019-02-22T23:39:48.478Z,103977.89
2019-02-22T23:42:18.794Z,103960.87
2019-02-22T23:44:48.890Z,103960.91
2019-02-22T23:47:18.978Z,103950.74
2019-02-22T23:49:49.031Z,103940.88
2019-02-22T23:52:19.076Z,103937.10
2019-02-22T23:54:49.150Z,103939.30
2019-02-22T23:57:19.253Z,103934.45
2019-02-22T23:59:49.331Z,103930.62
